sensor_id;sensor_type;location;lat;lon;timestamp;pressure;altitude;pressure_sealevel;temperature;humidity
28167;BME280;15455;53.376;-6.262;2023-08-30T00:02:03;100934.25;;;10.47;100.00
28167;BME280;15455;53.376;-6.262;2023-08-30T00:04:49;100937.72;;;10.46;100.00
28167;BME280;15455;53.376;-6.262;2023-08-30T00:07:34;100942.09;;;10.47;100.00
28167;BME280;15455;53.376;-6.262;2023-08-30T00:10:20;100943.84;;;10.45;100.00
28167;BME280;15455;53.376;-6.262;2023-08-30T00:13:05;100945.56;;;10.42;100.00
28167;BME280;15455;53.376;-6.262;2023-08-30T00:15:51;100938.63;;;10.41;100.00
28167;BME280;15455;53.376;-6.262;2023-08-30T00:18:36;100941.19;;;10.38;100.00
28167;BME280;15455;53.376;-6.262;2023-08-30T00:21:22;100949.03;;;10.35;100.00
28167;BME280;15455;53.376;-6.262;2023-08-30T00:24:07;100952.53;;;10.37;100.00
28167;BME280;15455;53.376;-6.262;2023-08-30T00:26:53;100942.09;;;10.34;100.00
28167;BME280;15455;53.376;-6.262;2023-08-30T00:29:38;100942.91;;;10.30;100.00
28167;BME280;15455;53.376;-6.262;2023-08-30T00:32:24;100946.38;;;10.29;100.00
28167;BME280;15455;53.376;-6.262;2023-08-30T00:35:09;100948.13;;;10.27;100.00
28167;BME280;15455;53.376;-6.262;2023-08-30T00:37:55;100950.72;;;10.25;100.00
28167;BME280;15455;53.376;-6.262;2023-08-30T00:40:41;100948.97;;;10.24;100.00
28167;BME280;15455;53.376;-6.262;2023-08-30T00:43:27;100951.59;;;10.28;100.00
28167;BME280;15455;53.376;-6.262;2023-08-30T00:46:13;100942.91;;;10.30;100.00
28167;BME280;15455;53.376;-6.262;2023-08-30T00:49:00;100938.59;;;10.35;100.00
28167;BME280;15455;53.376;-6.262;2023-08-30T00:51:46;100931.66;;;10.37;100.00
28167;BME280;15455;53.376;-6.262;2023-08-30T00:54:31;100929.03;;;10.37;100.00
28167;BME280;15455;53.376;-6.262;2023-08-30T00:57:17;100931.66;;;10.36;100.00
28167;BME280;15455;53.376;-6.262;2023-08-30T01:00:05;100927.28;;;10.35;100.00
28167;BME280;15455;53.376;-6.262;2023-08-30T01:02:51;100932.50;;;10.35;100.00
28167;BME280;15455;53.376;-6.262;2023-08-30T01:05:38;100928.16;;;10.37;100.00
28167;BME280;15455;53.376;-6.262;2023-08-30T01:08:24;100938.59;;;10.38;100.00
28167;BME280;15455;53.376;-6.262;2023-08-30T01:11:21;100936.00;;;10.40;100.00
28167;BME280;15455;53.376;-6.262;2023-08-30T01:14:15;100929.91;;;10.41;100.00
28167;BME280;15455;53.376;-6.262;2023-08-30T01:17:05;100926.44;;;10.43;100.00
28167;BME280;15455;53.376;-6.262;2023-08-30T01:23:12;100929.91;;;10.50;100.00
28167;BME280;15455;53.376;-6.262;2023-08-30T01:26:33;100927.31;;;10.55;100.00
28167;BME280;15455;53.376;-6.262;2023-08-30T01:29:22;100929.91;;;10.58;100.00
28167;BME280;15455;53.376;-6.262;2023-08-30T01:32:09;100926.44;;;10.62;100.00
28167;BME280;15455;53.376;-6.262;2023-08-30T01:34:56;100923.81;;;10.67;100.00
28167;BME280;15455;53.376;-6.262;2023-08-30T01:37:45;100916.84;;;10.67;100.00
28167;BME280;15455;53.376;-6.262;2023-08-30T01:40:35;100918.59;;;10.71;100.00
28167;BME280;15455;53.376;-6.262;2023-08-30T01:43:22;100914.25;;;10.73;100.00
28167;BME280;15455;53.376;-6.262;2023-08-30T01:46:08;100908.16;;;10.74;100.00
28167;BME280;15455;53.376;-6.262;2023-08-30T01:48:55;100901.22;;;10.76;100.00
28167;BME280;15455;53.376;-6.262;2023-08-30T01:51:41;100905.56;;;10.77;100.00
28167;BME280;15455;53.376;-6.262;2023-08-30T01:54:27;100903.81;;;10.80;100.00
28167;BME280;15455;53.376;-6.262;2023-08-30T01:57:13;100904.66;;;10.82;100.00
28167;BME280;15455;53.376;-6.262;2023-08-30T01:59:59;100902.94;;;10.82;100.00
28167;BME280;15455;53.376;-6.262;2023-08-30T02:02:46;100903.78;;;10.86;100.00
28167;BME280;15455;53.376;-6.262;2023-08-30T02:05:32;100897.72;;;10.87;100.00
28167;BME280;15455;53.376;-6.262;2023-08-30T02:08:20;100895.09;;;10.87;100.00
28167;BME280;15455;53.376;-6.262;2023-08-30T02:11:12;100896.84;;;10.89;100.00
28167;BME280;15455;53.376;-6.262;2023-08-30T02:14:00;100888.13;;;10.87;100.00
28167;BME280;15455;53.376;-6.262;2023-08-30T02:16:47;100893.34;;;10.87;100.00
28167;BME280;15455;53.376;-6.262;2023-08-30T02:19:33;100901.19;;;10.86;100.00
28167;BME280;15455;53.376;-6.262;2023-08-30T02:22:19;100895.97;;;10.81;100.00
28167;BME280;15455;53.376;-6.262;2023-08-30T02:25:05;100898.59;;;10.76;100.00
28167;BME280;15455;53.376;-6.262;2023-08-30T02:27:51;100897.72;;;10.73;100.00
28167;BME280;15455;53.376;-6.262;2023-08-30T02:30:37;100896.84;;;10.69;100.00
28167;BME280;15455;53.376;-6.262;2023-08-30T02:33:22;100890.75;;;10.66;100.00
28167;BME280;15455;53.376;-6.262;2023-08-30T02:36:08;100901.19;;;10.64;100.00
28167;BME280;15455;53.376;-6.262;2023-08-30T02:38:54;100898.59;;;10.59;100.00
28167;BME280;15455;53.376;-6.262;2023-08-30T02:41:39;100897.75;;;10.56;100.00
28167;BME280;15455;53.376;-6.262;2023-08-30T02:44:25;100905.56;;;10.54;100.00
28167;BME280;15455;53.376;-6.262;2023-08-30T02:47:11;100902.06;;;10.52;100.00
28167;BME280;15455;53.376;-6.262;2023-08-30T02:49:56;100900.34;;;10.48;100.00
28167;BME280;15455;53.376;-6.262;2023-08-30T02:52:42;100903.84;;;10.47;100.00
28167;BME280;15455;53.376;-6.262;2023-08-30T02:55:27;100903.81;;;10.41;100.00
28167;BME280;15455;53.376;-6.262;2023-08-30T02:58:12;100904.69;;;10.43;100.00
28167;BME280;15455;53.376;-6.262;2023-08-30T03:01:00;100908.16;;;10.42;100.00
28167;BME280;15455;53.376;-6.262;2023-08-30T03:03:46;100905.56;;;10.40;100.00
28167;BME280;15455;53.376;-6.262;2023-08-30T03:06:35;100913.38;;;10.37;100.00
28167;BME280;15455;53.376;-6.262;2023-08-30T03:09:21;100906.38;;;10.32;100.00
28167;BME280;15455;53.376;-6.262;2023-08-30T03:12:06;100914.22;;;10.29;100.00
28167;BME280;15455;53.376;-6.262;2023-08-30T03:14:54;100909.84;;;10.26;100.00
28167;BME280;15455;53.376;-6.262;2023-08-30T03:17:40;100900.28;;;10.23;100.00
28167;BME280;15455;53.376;-6.262;2023-08-30T03:20:25;100896.81;;;10.21;100.00
28167;BME280;15455;53.376;-6.262;2023-08-30T03:23:13;100894.19;;;10.18;100.00
28167;BME280;15455;53.376;-6.262;2023-08-30T03:25:59;100896.81;;;10.20;100.00
28167;BME280;15455;53.376;-6.262;2023-08-30T03:28:46;100888.09;;;10.16;100.00
28167;BME280;15455;53.376;-6.262;2023-08-30T03:31:31;100888.09;;;10.15;100.00
28167;BME280;15455;53.376;-6.262;2023-08-30T03:34:17;100889.84;;;10.13;100.00
28167;BME280;15455;53.376;-6.262;2023-08-30T03:37:03;100889.81;;;10.09;100.00
28167;BME280;15455;53.376;-6.262;2023-08-30T03:39:49;100882.88;;;10.08;100.00
28167;BME280;15455;53.376;-6.262;2023-08-30T03:42:34;100899.38;;;10.09;100.00
28167;BME280;15455;53.376;-6.262;2023-08-30T03:45:21;100901.13;;;10.08;100.00
28167;BME280;15455;53.376;-6.262;2023-08-30T03:48:07;100902.00;;;10.09;100.00
28167;BME280;15455;53.376;-6.262;2023-08-30T03:50:54;100902.84;;;10.09;100.00
28167;BME280;15455;53.376;-6.262;2023-08-30T03:53:40;100906.34;;;10.10;100.00
28167;BME280;15455;53.376;-6.262;2023-08-30T03:56:25;100911.56;;;10.10;100.00
28167;BME280;15455;53.376;-6.262;2023-08-30T03:59:14;100912.44;;;10.11;100.00
28167;BME280;15455;53.376;-6.262;2023-08-30T04:01:59;100912.44;;;10.09;100.00
28167;BME280;15455;53.376;-6.262;2023-08-30T04:04:47;100917.63;;;10.09;100.00
28167;BME280;15455;53.376;-6.262;2023-08-30T04:07:33;100915.03;;;10.09;100.00
28167;BME280;15455;53.376;-6.262;2023-08-30T04:10:19;100908.06;;;10.09;100.00
28167;BME280;15455;53.376;-6.262;2023-08-30T04:13:06;100914.19;;;10.10;100.00
28167;BME280;15455;53.376;-6.262;2023-08-30T04:15:52;100918.50;;;10.08;100.00
28167;BME280;15455;53.376;-6.262;2023-08-30T04:18:38;100914.16;;;10.05;100.00
28167;BME280;15455;53.376;-6.262;2023-08-30T04:21:24;100912.41;;;10.04;100.00
28167;BME280;15455;53.376;-6.262;2023-08-30T04:24:09;100911.53;;;10.01;100.00
28167;BME280;15455;53.376;-6.262;2023-08-30T04:26:56;100907.19;;;9.98;100.00
28167;BME280;15455;53.376;-6.262;2023-08-30T04:29:41;100897.63;;;9.97;100.00
28167;BME280;15455;53.376;-6.262;2023-08-30T04:32:30;100902.84;;;9.94;100.00
28167;BME280;15455;53.376;-6.262;2023-08-30T04:35:15;100901.97;;;9.95;100.00
28167;BME280;15455;53.376;-6.262;2023-08-30T04:38:01;100908.06;;;9.94;100.00
28167;BME280;15455;53.376;-6.262;2023-08-30T04:40:48;100901.09;;;9.93;100.00
28167;BME280;15455;53.376;-6.262;2023-08-30T04:43:34;100899.34;;;9.89;100.00
28167;BME280;15455;53.376;-6.262;2023-08-30T04:46:20;100891.50;;;9.87;100.00
28167;BME280;15455;53.376;-6.262;2023-08-30T04:49:06;100894.97;;;9.85;100.00
28167;BME280;15455;53.376;-6.262;2023-08-30T04:51:51;100897.56;;;9.82;100.00
28167;BME280;15455;53.376;-6.262;2023-08-30T04:54:37;100894.09;;;9.80;100.00
28167;BME280;15455;53.376;-6.262;2023-08-30T04:57:22;100896.72;;;9.80;100.00
28167;BME280;15455;53.376;-6.262;2023-08-30T05:00:08;100901.94;;;9.83;100.00
28167;BME280;15455;53.376;-6.262;2023-08-30T05:02:54;100913.22;;;9.80;100.00
28167;BME280;15455;53.376;-6.262;2023-08-30T05:05:40;100907.13;;;9.77;100.00
28167;BME280;15455;53.376;-6.262;2023-08-30T05:08:29;100906.25;;;9.74;100.00
28167;BME280;15455;53.376;-6.262;2023-08-30T05:11:15;100900.16;;;9.72;100.00
28167;BME280;15455;53.376;-6.262;2023-08-30T05:14:01;100902.75;;;9.69;100.00
28167;BME280;15455;53.376;-6.262;2023-08-30T05:16:48;100907.09;;;9.70;100.00
28167;BME280;15455;53.376;-6.262;2023-08-30T05:19:37;100902.78;;;9.71;100.00
28167;BME280;15455;53.376;-6.262;2023-08-30T05:22:23;100900.16;;;9.72;100.00
28167;BME280;15455;53.376;-6.262;2023-08-30T05:25:08;100897.56;;;9.69;100.00
28167;BME280;15455;53.376;-6.262;2023-08-30T05:27:54;100905.38;;;9.68;100.00
28167;BME280;15455;53.376;-6.262;2023-08-30T05:30:42;100909.69;;;9.66;100.00
28167;BME280;15455;53.376;-6.262;2023-08-30T05:33:42;100907.97;;;9.68;100.00
28167;BME280;15455;53.376;-6.262;2023-08-30T05:36:47;100919.25;;;9.67;100.00
28167;BME280;15455;53.376;-6.262;2023-08-30T05:39:42;100923.59;;;9.66;100.00
28167;BME280;15455;53.376;-6.262;2023-08-30T05:42:28;100913.19;;;9.66;100.00
28167;BME280;15455;53.376;-6.262;2023-08-30T05:45:13;100917.50;;;9.67;100.00
28167;BME280;15455;53.376;-6.262;2023-08-30T05:47:59;100914.03;;;9.67;100.00
28167;BME280;15455;53.376;-6.262;2023-08-30T05:50:48;100914.91;;;9.66;100.00
28167;BME280;15455;53.376;-6.262;2023-08-30T05:53:33;100920.97;;;9.65;100.00
28167;BME280;15455;53.376;-6.262;2023-08-30T05:56:19;100922.72;;;9.64;100.00
28167;BME280;15455;53.376;-6.262;2023-08-30T05:59:05;100927.06;;;9.65;100.00
28167;BME280;15455;53.376;-6.262;2023-08-30T06:01:51;100927.06;;;9.62;100.00
28167;BME280;15455;53.376;-6.262;2023-08-30T06:04:36;100933.13;;;9.61;100.00
28167;BME280;15455;53.376;-6.262;2023-08-30T06:07:22;100931.38;;;9.63;100.00
28167;BME280;15455;53.376;-6.262;2023-08-30T06:10:07;100933.16;;;9.67;100.00
28167;BME280;15455;53.376;-6.262;2023-08-30T06:12:53;100943.63;;;9.75;100.00
28167;BME280;15455;53.376;-6.262;2023-08-30T06:15:39;100942.78;;;9.84;100.00
28167;BME280;15455;53.376;-6.262;2023-08-30T06:18:29;100940.19;;;9.91;100.00
28167;BME280;15455;53.376;-6.262;2023-08-30T06:21:14;100938.50;;;10.01;100.00
28167;BME280;15455;53.376;-6.262;2023-08-30T06:24:00;100939.34;;;10.09;100.00
28167;BME280;15455;53.376;-6.262;2023-08-30T06:26:45;100933.31;;;10.20;100.00
28167;BME280;15455;53.376;-6.262;2023-08-30T06:29:31;100930.72;;;10.31;100.00
28167;BME280;15455;53.376;-6.262;2023-08-30T06:32:17;100929.91;;;10.38;100.00
28167;BME280;15455;53.376;-6.262;2023-08-30T06:35:03;100928.19;;;10.46;100.00
28167;BME280;15455;53.376;-6.262;2023-08-30T06:37:49;100920.34;;;10.54;100.00
28167;BME280;15455;53.376;-6.262;2023-08-30T06:40:35;100922.97;;;10.63;100.00
28167;BME280;15455;53.376;-6.262;2023-08-30T06:43:21;100926.41;;;10.74;100.00
28167;BME280;15455;53.376;-6.262;2023-08-30T06:46:06;100922.06;;;10.84;100.00
28167;BME280;15455;53.376;-6.262;2023-08-30T06:48:52;100918.59;;;10.91;100.00
28167;BME280;15455;53.376;-6.262;2023-08-30T06:51:37;100913.34;;;10.98;100.00
28167;BME280;15455;53.376;-6.262;2023-08-30T06:54:23;100909.84;;;11.03;100.00
28167;BME280;15455;53.376;-6.262;2023-08-30T06:57:09;100903.75;;;11.09;100.00
28167;BME280;15455;53.376;-6.262;2023-08-30T06:59:55;100897.66;;;11.13;100.00
28167;BME280;15455;53.376;-6.262;2023-08-30T07:02:40;100896.78;;;11.19;100.00
28167;BME280;15455;53.376;-6.262;2023-08-30T07:05:30;100892.41;;;11.25;100.00
28167;BME280;15455;53.376;-6.262;2023-08-30T07:08:15;100886.28;;;11.28;100.00
28167;BME280;15455;53.376;-6.262;2023-08-30T07:11:01;100879.31;;;11.32;100.00
28167;BME280;15455;53.376;-6.262;2023-08-30T07:13:47;100873.22;;;11.34;100.00
28167;BME280;15455;53.376;-6.262;2023-08-30T07:16:32;100879.28;;;11.39;100.00
28167;BME280;15455;53.376;-6.262;2023-08-30T07:19:18;100877.53;;;11.47;100.00
28167;BME280;15455;53.376;-6.262;2023-08-30T07:22:03;100879.19;;;11.59;100.00
28167;BME280;15455;53.376;-6.262;2023-08-30T07:24:49;100876.50;;;11.78;100.00
28167;BME280;15455;53.376;-6.262;2023-08-30T07:27:35;100877.28;;;11.98;100.00
28167;BME280;15455;53.376;-6.262;2023-08-30T07:30:24;100871.06;;;12.20;100.00
28167;BME280;15455;53.376;-6.262;2023-08-30T07:33:09;100870.91;;;12.38;100.00
28167;BME280;15455;53.376;-6.262;2023-08-30T07:35:55;100856.81;;;12.55;100.00
28167;BME280;15455;53.376;-6.262;2023-08-30T07:38:40;100841.00;;;12.65;100.00
28167;BME280;15455;53.376;-6.262;2023-08-30T07:41:27;100826.97;;;12.74;100.00
28167;BME280;15455;53.376;-6.262;2023-08-30T07:44:13;100823.34;;;12.86;100.00
28167;BME280;15455;53.376;-6.262;2023-08-30T07:46:58;100817.19;;;12.90;100.00
28167;BME280;15455;53.376;-6.262;2023-08-30T07:49:44;100811.94;;;12.90;100.00
28167;BME280;15455;53.376;-6.262;2023-08-30T07:52:29;100801.47;;;12.89;100.00
28167;BME280;15455;53.376;-6.262;2023-08-30T07:55:30;100808.44;;;12.93;100.00
28167;BME280;15455;53.376;-6.262;2023-08-30T07:58:17;100808.38;;;12.96;100.00
28167;BME280;15455;53.376;-6.262;2023-08-30T08:01:03;100804.00;;;12.98;100.00
28167;BME280;15455;53.376;-6.262;2023-08-30T08:03:49;100803.94;;;13.01;100.00
28167;BME280;15455;53.376;-6.262;2023-08-30T08:06:51;100796.97;;;13.03;100.00
28167;BME280;15455;53.376;-6.262;2023-08-30T08:09:41;100798.66;;;13.04;100.00
28167;BME280;15455;53.376;-6.262;2023-08-30T08:12:26;100798.66;;;13.07;100.00
28167;BME280;15455;53.376;-6.262;2023-08-30T08:15:12;100806.50;;;13.09;100.00
28167;BME280;15455;53.376;-6.262;2023-08-30T08:18:00;100806.50;;;13.09;100.00
28167;BME280;15455;53.376;-6.262;2023-08-30T08:20:45;100804.69;;;13.12;100.00
28167;BME280;15455;53.376;-6.262;2023-08-30T08:23:31;100799.41;;;13.15;100.00
28167;BME280;15455;53.376;-6.262;2023-08-30T08:26:16;100798.41;;;13.26;100.00
28167;BME280;15455;53.376;-6.262;2023-08-30T08:29:02;100806.19;;;13.35;100.00
28167;BME280;15455;53.376;-6.262;2023-08-30T08:31:49;100798.28;;;13.40;100.00
28167;BME280;15455;53.376;-6.262;2023-08-30T08:34:34;100808.63;;;13.47;100.00
28167;BME280;15455;53.376;-6.262;2023-08-30T08:37:20;100807.72;;;13.51;100.00
28167;BME280;15455;53.376;-6.262;2023-08-30T08:40:06;100814.63;;;13.57;100.00
28167;BME280;15455;53.376;-6.262;2023-08-30T08:42:55;100808.28;;;13.72;100.00
28167;BME280;15455;53.376;-6.262;2023-08-30T08:45:41;100802.06;;;13.82;100.00
28167;BME280;15455;53.376;-6.262;2023-08-30T08:48:28;100797.44;;;13.95;100.00
28167;BME280;15455;53.376;-6.262;2023-08-30T08:51:14;100800.72;;;14.10;100.00
28167;BME280;15455;53.376;-6.262;2023-08-30T08:54:03;100798.75;;;14.22;100.00
28167;BME280;15455;53.376;-6.262;2023-08-30T08:56:49;100800.41;;;14.30;100.00
28167;BME280;15455;53.376;-6.262;2023-08-30T08:59:35;100791.59;;;14.34;100.00
28167;BME280;15455;53.376;-6.262;2023-08-30T09:02:21;100794.91;;;14.44;100.00
28167;BME280;15455;53.376;-6.262;2023-08-30T09:05:07;100800.25;;;14.39;100.00
28167;BME280;15455;53.376;-6.262;2023-08-30T09:07:54;100787.97;;;14.39;100.00
28167;BME280;15455;53.376;-6.262;2023-08-30T09:10:40;100779.97;;;14.46;100.00
28167;BME280;15455;53.376;-6.262;2023-08-30T09:13:26;100778.94;;;14.56;100.00
28167;BME280;15455;53.376;-6.262;2023-08-30T09:16:14;100774.34;;;14.69;100.00
28167;BME280;15455;53.376;-6.262;2023-08-30T09:19:02;100771.59;;;14.76;100.00
28167;BME280;15455;53.376;-6.262;2023-08-30T09:21:56;100782.78;;;14.86;100.00
28167;BME280;15455;53.376;-6.262;2023-08-30T09:24:42;100787.84;;;14.96;100.00
28167;BME280;15455;53.376;-6.262;2023-08-30T09:27:32;100780.84;;;14.94;100.00
28167;BME280;15455;53.376;-6.262;2023-08-30T09:30:22;100782.59;;;14.96;100.00
28167;BME280;15455;53.376;-6.262;2023-08-30T09:33:07;100783.38;;;14.99;100.00
28167;BME280;15455;53.376;-6.262;2023-08-30T09:35:53;100771.13;;;15.00;100.00
28167;BME280;15455;53.376;-6.262;2023-08-30T09:38:39;100772.88;;;15.01;100.00
28167;BME280;15455;53.376;-6.262;2023-08-30T09:41:25;100771.00;;;15.06;100.00
28167;BME280;15455;53.376;-6.262;2023-08-30T09:46:59;100787.91;;;15.35;100.00
28167;BME280;15455;53.376;-6.262;2023-08-30T09:49:45;100779.88;;;15.41;100.00
28167;BME280;15455;53.376;-6.262;2023-08-30T09:52:32;100784.81;;;15.56;100.00
28167;BME280;15455;53.376;-6.262;2023-08-30T09:55:19;100786.66;;;15.51;100.00
28167;BME280;15455;53.376;-6.262;2023-08-30T09:58:07;100793.50;;;15.58;100.00
28167;BME280;15455;53.376;-6.262;2023-08-30T10:00:53;100785.69;;;15.55;100.00
28167;BME280;15455;53.376;-6.262;2023-08-30T10:03:39;100780.50;;;15.52;100.00
28167;BME280;15455;53.376;-6.262;2023-08-30T10:06:26;100794.44;;;15.57;100.00
28167;BME280;15455;53.376;-6.262;2023-08-30T10:09:11;100791.78;;;15.59;100.00
28167;BME280;15455;53.376;-6.262;2023-08-30T10:12:01;100791.59;;;15.67;100.00
28167;BME280;15455;53.376;-6.262;2023-08-30T10:14:48;100788.72;;;15.77;100.00
28167;BME280;15455;53.376;-6.262;2023-08-30T10:17:34;100781.47;;;15.87;100.00
28167;BME280;15455;53.376;-6.262;2023-08-30T10:20:20;100786.66;;;15.92;100.00
28167;BME280;15455;53.376;-6.262;2023-08-30T10:23:07;100775.91;;;16.01;100.00
28167;BME280;15455;53.376;-6.262;2023-08-30T10:25:54;100770.44;;;16.09;100.00
28167;BME280;15455;53.376;-6.262;2023-08-30T10:28:41;100774.41;;;16.25;100.00
28167;BME280;15455;53.376;-6.262;2023-08-30T10:31:27;100773.28;;;16.36;100.00
28167;BME280;15455;53.376;-6.262;2023-08-30T10:34:16;100785.97;;;16.20;100.00
28167;BME280;15455;53.376;-6.262;2023-08-30T10:37:05;100774.69;;;16.14;100.00
28167;BME280;15455;53.376;-6.262;2023-08-30T10:39:52;100779.13;;;16.12;100.00
28167;BME280;15455;53.376;-6.262;2023-08-30T10:42:37;100781.59;;;16.19;100.00
28167;BME280;15455;53.376;-6.262;2023-08-30T10:45:23;100778.03;;;16.21;100.00
28167;BME280;15455;53.376;-6.262;2023-08-30T10:48:09;100770.28;;;16.15;100.00
28167;BME280;15455;53.376;-6.262;2023-08-30T10:50:56;100768.03;;;16.00;100.00
28167;BME280;15455;53.376;-6.262;2023-08-30T10:53:42;100773.53;;;15.89;100.00
28167;BME280;15455;53.376;-6.262;2023-08-30T10:56:29;100778.59;;;15.98;100.00
28167;BME280;15455;53.376;-6.262;2023-08-30T10:59:20;100778.97;;;16.19;100.00
28167;BME280;15455;53.376;-6.262;2023-08-30T11:02:06;100769.66;;;16.40;100.00
28167;BME280;15455;53.376;-6.262;2023-08-30T11:04:52;100764.94;;;16.53;100.00
28167;BME280;15455;53.376;-6.262;2023-08-30T11:07:38;100766.38;;;16.64;100.00
28167;BME280;15455;53.376;-6.262;2023-08-30T11:10:23;100762.50;;;16.76;100.00
28167;BME280;15455;53.376;-6.262;2023-08-30T11:13:09;100758.81;;;16.83;100.00
28167;BME280;15455;53.376;-6.262;2023-08-30T11:15:59;100761.81;;;16.71;100.00
28167;BME280;15455;53.376;-6.262;2023-08-30T11:18:45;100766.72;;;16.50;100.00
28167;BME280;15455;53.376;-6.262;2023-08-30T11:21:33;100763.63;;;16.35;100.00
28167;BME280;15455;53.376;-6.262;2023-08-30T11:24:18;100754.88;;;16.34;100.00
28167;BME280;15455;53.376;-6.262;2023-08-30T11:27:04;100767.16;;;16.35;100.00
28167;BME280;15455;53.376;-6.262;2023-08-30T11:29:50;100761.69;;;16.43;100.00
28167;BME280;15455;53.376;-6.262;2023-08-30T11:32:37;100762.22;;;16.56;100.00
28167;BME280;15455;53.376;-6.262;2023-08-30T11:35:24;100768.63;;;16.78;100.00
28167;BME280;15455;53.376;-6.262;2023-08-30T11:38:10;100759.34;;;16.96;100.00
28167;BME280;15455;53.376;-6.262;2023-08-30T11:40:56;100753.75;;;17.07;100.00
28167;BME280;15455;53.376;-6.262;2023-08-30T11:43:42;100756.53;;;17.02;100.00
28167;BME280;15455;53.376;-6.262;2023-08-30T11:46:29;100754.31;;;17.18;100.00
28167;BME280;15455;53.376;-6.262;2023-08-30T11:49:16;100751.91;;;17.41;100.00
28167;BME280;15455;53.376;-6.262;2023-08-30T11:52:01;100756.44;;;17.64;100.00
28167;BME280;15455;53.376;-6.262;2023-08-30T11:54:48;100753.50;;;17.73;100.00
28167;BME280;15455;53.376;-6.262;2023-08-30T11:57:36;100748.91;;;17.80;100.00
28167;BME280;15455;53.376;-6.262;2023-08-30T12:00:21;100742.69;;;17.81;100.00
28167;BME280;15455;53.376;-6.262;2023-08-30T12:03:07;100748.94;;;17.78;100.00
28167;BME280;15455;53.376;-6.262;2023-08-30T12:05:54;100746.00;;;17.61;100.00
28167;BME280;15455;53.376;-6.262;2023-08-30T12:08:39;100747.91;;;17.56;100.00
28167;BME280;15455;53.376;-6.262;2023-08-30T12:11:25;100750.53;;;17.56;100.00
28167;BME280;15455;53.376;-6.262;2023-08-30T12:14:10;100748.75;;;17.56;100.00
28167;BME280;15455;53.376;-6.262;2023-08-30T12:16:59;100751.66;;;17.48;100.00
28167;BME280;15455;53.376;-6.262;2023-08-30T12:19:45;100738.94;;;17.61;100.00
28167;BME280;15455;53.376;-6.262;2023-08-30T12:22:40;100750.75;;;17.76;100.00
28167;BME280;15455;53.376;-6.262;2023-08-30T12:25:25;100745.19;;;17.85;100.00
28167;BME280;15455;53.376;-6.262;2023-08-30T12:28:12;100747.28;;;17.76;100.00
28167;BME280;15455;53.376;-6.262;2023-08-30T12:30:58;100749.44;;;17.63;100.00
28167;BME280;15455;53.376;-6.262;2023-08-30T12:33:46;100745.56;;;17.46;100.00
28167;BME280;15455;53.376;-6.262;2023-08-30T12:36:31;100743.16;;;17.39;100.00
28167;BME280;15455;53.376;-6.262;2023-08-30T12:39:17;100739.81;;;17.33;100.00
28167;BME280;15455;53.376;-6.262;2023-08-30T12:42:02;100746.94;;;17.30;100.00
28167;BME280;15455;53.376;-6.262;2023-08-30T12:44:48;100741.00;;;17.22;100.00
28167;BME280;15455;53.376;-6.262;2023-08-30T12:47:34;100745.81;;;17.09;100.00
28167;BME280;15455;53.376;-6.262;2023-08-30T12:50:21;100749.56;;;17.00;100.00
28167;BME280;15455;53.376;-6.262;2023-08-30T12:53:07;100746.25;;;16.93;100.00
28167;BME280;15455;53.376;-6.262;2023-08-30T12:55:53;100739.94;;;16.99;100.00
28167;BME280;15455;53.376;-6.262;2023-08-30T12:58:39;100739.72;;;17.07;100.00
28167;BME280;15455;53.376;-6.262;2023-08-30T13:01:24;100737.25;;;17.00;100.00
28167;BME280;15455;53.376;-6.262;2023-08-30T13:04:10;100738.34;;;16.93;100.00
28167;BME280;15455;53.376;-6.262;2023-08-30T13:06:55;100737.72;;;16.83;100.00
28167;BME280;15455;53.376;-6.262;2023-08-30T13:09:41;100742.13;;;16.83;100.00
28167;BME280;15455;53.376;-6.262;2023-08-30T13:12:26;100744.69;;;16.86;100.00
28167;BME280;15455;53.376;-6.262;2023-08-30T13:15:12;100741.03;;;16.92;100.00
28167;BME280;15455;53.376;-6.262;2023-08-30T13:17:57;100740.25;;;16.88;100.00
28167;BME280;15455;53.376;-6.262;2023-08-30T13:20:43;100742.38;;;16.74;100.00
28167;BME280;15455;53.376;-6.262;2023-08-30T13:23:28;100749.69;;;16.64;100.00
28167;BME280;15455;53.376;-6.262;2023-08-30T13:26:14;100745.59;;;16.52;100.00
28167;BME280;15455;53.376;-6.262;2023-08-30T13:28:59;100746.75;;;16.42;100.00
28167;BME280;15455;53.376;-6.262;2023-08-30T13:31:47;100732.78;;;16.40;100.00
28167;BME280;15455;53.376;-6.262;2023-08-30T13:34:32;100737.06;;;16.44;100.00
28167;BME280;15455;53.376;-6.262;2023-08-30T13:37:18;100736.81;;;16.53;100.00
28167;BME280;15455;53.376;-6.262;2023-08-30T13:40:04;100740.09;;;16.61;100.00
28167;BME280;15455;53.376;-6.262;2023-08-30T13:42:51;100746.13;;;16.65;100.00
28167;BME280;15455;53.376;-6.262;2023-08-30T13:45:36;100741.66;;;16.69;100.00
28167;BME280;15455;53.376;-6.262;2023-08-30T13:48:22;100745.91;;;16.74;100.00
28167;BME280;15455;53.376;-6.262;2023-08-30T13:51:07;100741.47;;;16.75;100.00
28167;BME280;15455;53.376;-6.262;2023-08-30T13:53:53;100744.63;;;16.89;100.00
28167;BME280;15455;53.376;-6.262;2023-08-30T13:56:38;100743.03;;;17.13;100.00
28167;BME280;15455;53.376;-6.262;2023-08-30T13:59:24;100739.72;;;17.36;100.00
28167;BME280;15455;53.376;-6.262;2023-08-30T14:02:09;100742.78;;;17.51;100.00
28167;BME280;15455;53.376;-6.262;2023-08-30T14:04:55;100734.59;;;17.59;100.00
28167;BME280;15455;53.376;-6.262;2023-08-30T14:07:40;100731.72;;;17.66;100.00
28167;BME280;15455;53.376;-6.262;2023-08-30T14:10:25;100737.56;;;17.76;100.00
28167;BME280;15455;53.376;-6.262;2023-08-30T14:13:11;100735.84;;;17.75;100.00
28167;BME280;15455;53.376;-6.262;2023-08-30T14:15:57;100732.28;;;17.76;100.00